sensor_id;sensor_type;location;lat;lon;timestamp;P1;durP1;ratioP1;P2;durP2;ratioP2
3953;SDS011;1991;48.682;9.030;2022-08-01T00:00:59;3.30;;;1.48;;
3953;SDS011;1991;48.682;9.030;2022-08-01T00:03:25;2.53;;;1.70;;
3953;SDS011;1991;48.682;9.030;2022-08-01T00:05:51;4.05;;;1.63;;
3953;SDS011;1991;48.682;9.030;2022-08-01T00:08:16;2.65;;;1.77;;
3953;SDS011;1991;48.682;9.030;2022-08-01T00:10:42;1.80;;;1.45;;
3953;SDS011;1991;48.682;9.030;2022-08-01T00:13:07;4.25;;;1.80;;
3953;SDS011;1991;48.682;9.030;2022-08-01T00:15:33;3.10;;;1.70;;
3953;SDS011;1991;48.682;9.030;2022-08-01T00:17:59;2.15;;;1.60;;
3953;SDS011;1991;48.682;9.030;2022-08-01T00:20:24;3.35;;;2.13;;
3953;SDS011;1991;48.682;9.030;2022-08-01T00:22:50;2.65;;;2.08;;
3953;SDS011;1991;48.682;9.030;2022-08-01T00:25:16;1.55;;;1.45;;
3953;SDS011;1991;48.682;9.030;2022-08-01T00:27:41;2.38;;;1.60;;
3953;SDS011;1991;48.682;9.030;2022-08-01T00:30:07;1.63;;;1.52;;
3953;SDS011;1991;48.682;9.030;2022-08-01T00:32:33;2.13;;;1.67;;
3953;SDS011;1991;48.682;9.030;2022-08-01T00:34:58;1.85;;;1.70;;
3953;SDS011;1991;48.682;9.030;2022-08-01T00:37:24;2.65;;;1.95;;
3953;SDS011;1991;48.682;9.030;2022-08-01T00:39:50;1.80;;;1.63;;
3953;SDS011;1991;48.682;9.030;2022-08-01T00:42:15;1.90;;;1.70;;
3953;SDS011;1991;48.682;9.030;2022-08-01T00:44:41;2.17;;;1.75;;
3953;SDS011;1991;48.682;9.030;2022-08-01T00:47:06;2.08;;;1.80;;
3953;SDS011;1991;48.682;9.030;2022-08-01T00:49:32;3.75;;;1.67;;
3953;SDS011;1991;48.682;9.030;2022-08-01T00:51:58;2.85;;;1.70;;
3953;SDS011;1991;48.682;9.030;2022-08-01T00:54:25;1.95;;;1.85;;
3953;SDS011;1991;48.682;9.030;2022-08-01T00:56:51;2.72;;;1.83;;
3953;SDS011;1991;48.682;9.030;2022-08-01T00:59:18;2.42;;;1.88;;
3953;SDS011;1991;48.682;9.030;2022-08-01T01:01:45;2.78;;;1.65;;
3953;SDS011;1991;48.682;9.030;2022-08-01T01:04:11;2.75;;;2.13;;
3953;SDS011;1991;48.682;9.030;2022-08-01T01:06:44;3.47;;;1.90;;
3953;SDS011;1991;48.682;9.030;2022-08-01T01:17:48;3.35;;;1.77;;
3953;SDS011;1991;48.682;9.030;2022-08-01T01:20:21;2.78;;;1.60;;
3953;SDS011;1991;48.682;9.030;2022-08-01T01:23:12;2.47;;;2.10;;
3953;SDS011;1991;48.682;9.030;2022-08-01T01:28:35;3.83;;;1.80;;
3953;SDS011;1991;48.682;9.030;2022-08-01T01:31:20;2.15;;;1.70;;
3953;SDS011;1991;48.682;9.030;2022-08-01T01:33:48;1.73;;;1.58;;
3953;SDS011;1991;48.682;9.030;2022-08-01T01:36:15;2.83;;;1.85;;
3953;SDS011;1991;48.682;9.030;2022-08-01T01:38:44;4.53;;;1.92;;
3953;SDS011;1991;48.682;9.030;2022-08-01T01:41:11;2.83;;;2.00;;
3953;SDS011;1991;48.682;9.030;2022-08-01T01:43:39;4.75;;;2.15;;
3953;SDS011;1991;48.682;9.030;2022-08-01T01:46:05;3.85;;;2.20;;
3953;SDS011;1991;48.682;9.030;2022-08-01T01:48:34;2.75;;;2.30;;
3953;SDS011;1991;48.682;9.030;2022-08-01T01:51:01;1.95;;;1.80;;
3953;SDS011;1991;48.682;9.030;2022-08-01T01:53:29;5.82;;;2.30;;
3953;SDS011;1991;48.682;9.030;2022-08-01T01:55:57;4.45;;;2.05;;
3953;SDS011;1991;48.682;9.030;2022-08-01T01:58:25;2.35;;;2.13;;
3953;SDS011;1991;48.682;9.030;2022-08-01T02:00:52;3.53;;;2.15;;
3953;SDS011;1991;48.682;9.030;2022-08-01T02:03:21;2.20;;;2.00;;
3953;SDS011;1991;48.682;9.030;2022-08-01T02:05:49;2.88;;;2.58;;
3953;SDS011;1991;48.682;9.030;2022-08-01T02:08:18;5.88;;;2.15;;
3953;SDS011;1991;48.682;9.030;2022-08-01T02:10:45;2.40;;;2.17;;
3953;SDS011;1991;48.682;9.030;2022-08-01T02:13:31;2.45;;;2.25;;
3953;SDS011;1991;48.682;9.030;2022-08-01T02:15:59;2.72;;;2.08;;
3953;SDS011;1991;48.682;9.030;2022-08-01T02:18:26;2.92;;;2.60;;
3953;SDS011;1991;48.682;9.030;2022-08-01T02:20:52;3.00;;;2.08;;
3953;SDS011;1991;48.682;9.030;2022-08-01T02:23:19;2.45;;;2.03;;
3953;SDS011;1991;48.682;9.030;2022-08-01T02:25:48;4.47;;;2.40;;
3953;SDS011;1991;48.682;9.030;2022-08-01T02:28:17;3.72;;;2.25;;
3953;SDS011;1991;48.682;9.030;2022-08-01T02:30:53;3.95;;;2.42;;
3953;SDS011;1991;48.682;9.030;2022-08-01T02:33:22;3.58;;;2.00;;
3953;SDS011;1991;48.682;9.030;2022-08-01T02:35:52;2.67;;;2.35;;
3953;SDS011;1991;48.682;9.030;2022-08-01T02:38:23;2.72;;;2.40;;
3953;SDS011;1991;48.682;9.030;2022-08-01T02:40:52;4.05;;;2.33;;
3953;SDS011;1991;48.682;9.030;2022-08-01T02:43:21;3.97;;;2.55;;
3953;SDS011;1991;48.682;9.030;2022-08-01T02:45:51;3.55;;;2.25;;
3953;SDS011;1991;48.682;9.030;2022-08-01T02:48:19;3.10;;;2.60;;
3953;SDS011;1991;48.682;9.030;2022-08-01T02:50:49;2.50;;;2.30;;
3953;SDS011;1991;48.682;9.030;2022-08-01T02:53:18;3.25;;;2.50;;
3953;SDS011;1991;48.682;9.030;2022-08-01T02:55:46;2.88;;;2.50;;
3953;SDS011;1991;48.682;9.030;2022-08-01T02:58:16;3.63;;;2.28;;
3953;SDS011;1991;48.682;9.030;2022-08-01T03:00:45;4.43;;;2.72;;
3953;SDS011;1991;48.682;9.030;2022-08-01T03:03:11;3.28;;;2.35;;
3953;SDS011;1991;48.682;9.030;2022-08-01T03:05:39;4.45;;;2.53;;
3953;SDS011;1991;48.682;9.030;2022-08-01T03:08:06;2.38;;;2.17;;
3953;SDS011;1991;48.682;9.030;2022-08-01T03:10:33;2.67;;;2.40;;
3953;SDS011;1991;48.682;9.030;2022-08-01T03:13:03;3.78;;;2.00;;
3953;SDS011;1991;48.682;9.030;2022-08-01T03:15:31;2.45;;;2.15;;
3953;SDS011;1991;48.682;9.030;2022-08-01T03:17:59;4.72;;;2.28;;
3953;SDS011;1991;48.682;9.030;2022-08-01T03:20:26;2.40;;;2.20;;
3953;SDS011;1991;48.682;9.030;2022-08-01T03:22:54;2.95;;;2.05;;
3953;SDS011;1991;48.682;9.030;2022-08-01T03:25:22;2.70;;;2.00;;
3953;SDS011;1991;48.682;9.030;2022-08-01T03:27:52;3.92;;;2.22;;
3953;SDS011;1991;48.682;9.030;2022-08-01T03:30:23;2.50;;;2.30;;
3953;SDS011;1991;48.682;9.030;2022-08-01T03:32:51;2.58;;;2.17;;
3953;SDS011;1991;48.682;9.030;2022-08-01T03:35:17;3.60;;;1.98;;
3953;SDS011;1991;48.682;9.030;2022-08-01T03:37:47;2.25;;;2.03;;
3953;SDS011;1991;48.682;9.030;2022-08-01T03:42:52;2.60;;;2.00;;
3953;SDS011;1991;48.682;9.030;2022-08-01T03:45:30;2.33;;;2.10;;
3953;SDS011;1991;48.682;9.030;2022-08-01T03:48:03;2.40;;;2.20;;
3953;SDS011;1991;48.682;9.030;2022-08-01T03:50:34;2.65;;;2.30;;
3953;SDS011;1991;48.682;9.030;2022-08-01T03:53:02;4.70;;;2.20;;
3953;SDS011;1991;48.682;9.030;2022-08-01T03:55:29;4.75;;;2.70;;
3953;SDS011;1991;48.682;9.030;2022-08-01T03:57:56;3.35;;;2.35;;
3953;SDS011;1991;48.682;9.030;2022-08-01T04:00:23;3.55;;;2.47;;
3953;SDS011;1991;48.682;9.030;2022-08-01T04:02:50;5.63;;;2.60;;
3953;SDS011;1991;48.682;9.030;2022-08-01T04:05:16;2.63;;;2.42;;
3953;SDS011;1991;48.682;9.030;2022-08-01T04:07:49;2.28;;;2.15;;
3953;SDS011;1991;48.682;9.030;2022-08-01T04:10:26;4.47;;;2.53;;
3953;SDS011;1991;48.682;9.030;2022-08-01T04:12:52;3.38;;;2.40;;
3953;SDS011;1991;48.682;9.030;2022-08-01T04:15:18;4.28;;;2.22;;
3953;SDS011;1991;48.682;9.030;2022-08-01T04:17:48;3.50;;;2.70;;
3953;SDS011;1991;48.682;9.030;2022-08-01T04:20:14;3.80;;;2.60;;
3953;SDS011;1991;48.682;9.030;2022-08-01T04:22:40;3.40;;;2.35;;
3953;SDS011;1991;48.682;9.030;2022-08-01T04:25:09;3.40;;;2.10;;
3953;SDS011;1991;48.682;9.030;2022-08-01T04:27:40;4.30;;;2.33;;
3953;SDS011;1991;48.682;9.030;2022-08-01T04:30:10;3.58;;;2.33;;
3953;SDS011;1991;48.682;9.030;2022-08-01T04:32:38;2.40;;;2.20;;
3953;SDS011;1991;48.682;9.030;2022-08-01T04:35:05;2.95;;;2.50;;
3953;SDS011;1991;48.682;9.030;2022-08-01T04:37:34;2.92;;;2.10;;
3953;SDS011;1991;48.682;9.030;2022-08-01T04:40:02;3.33;;;2.50;;
3953;SDS011;1991;48.682;9.030;2022-08-01T04:42:30;2.47;;;2.28;;
3953;SDS011;1991;48.682;9.030;2022-08-01T04:44:57;3.28;;;2.47;;
3953;SDS011;1991;48.682;9.030;2022-08-01T04:47:24;2.10;;;1.90;;
3953;SDS011;1991;48.682;9.030;2022-08-01T04:49:51;4.32;;;2.53;;
3953;SDS011;1991;48.682;9.030;2022-08-01T04:52:16;3.55;;;2.45;;
3953;SDS011;1991;48.682;9.030;2022-08-01T04:54:45;3.80;;;2.13;;
3953;SDS011;1991;48.682;9.030;2022-08-01T04:57:14;3.88;;;2.20;;
3953;SDS011;1991;48.682;9.030;2022-08-01T04:59:42;3.13;;;2.15;;
3953;SDS011;1991;48.682;9.030;2022-08-01T05:02:12;3.83;;;2.15;;
3953;SDS011;1991;48.682;9.030;2022-08-01T05:04:39;4.20;;;2.30;;
3953;SDS011;1991;48.682;9.030;2022-08-01T05:07:06;5.20;;;2.47;;
3953;SDS011;1991;48.682;9.030;2022-08-01T05:09:32;2.60;;;2.40;;
3953;SDS011;1991;48.682;9.030;2022-08-01T05:11:58;6.50;;;2.53;;
3953;SDS011;1991;48.682;9.030;2022-08-01T05:14:26;4.50;;;2.35;;
3953;SDS011;1991;48.682;9.030;2022-08-01T05:16:52;2.33;;;2.10;;
3953;SDS011;1991;48.682;9.030;2022-08-01T05:19:18;3.67;;;2.28;;
3953;SDS011;1991;48.682;9.030;2022-08-01T05:21:44;3.45;;;2.10;;
3953;SDS011;1991;48.682;9.030;2022-08-01T05:24:09;2.35;;;2.15;;
3953;SDS011;1991;48.682;9.030;2022-08-01T05:26:35;3.45;;;2.35;;
3953;SDS011;1991;48.682;9.030;2022-08-01T05:29:01;5.70;;;2.60;;
3953;SDS011;1991;48.682;9.030;2022-08-01T05:31:27;3.28;;;2.50;;
3953;SDS011;1991;48.682;9.030;2022-08-01T05:33:53;3.92;;;2.38;;
3953;SDS011;1991;48.682;9.030;2022-08-01T05:36:18;5.20;;;2.30;;
3953;SDS011;1991;48.682;9.030;2022-08-01T05:38:44;2.55;;;2.17;;
3953;SDS011;1991;48.682;9.030;2022-08-01T05:41:10;2.42;;;2.22;;
3953;SDS011;1991;48.682;9.030;2022-08-01T05:43:36;5.88;;;2.45;;
3953;SDS011;1991;48.682;9.030;2022-08-01T05:46:01;2.25;;;1.92;;
3953;SDS011;1991;48.682;9.030;2022-08-01T05:48:27;2.97;;;2.00;;
3953;SDS011;1991;48.682;9.030;2022-08-01T05:50:53;3.33;;;2.38;;
3953;SDS011;1991;48.682;9.030;2022-08-01T05:53:19;2.30;;;2.08;;
3953;SDS011;1991;48.682;9.030;2022-08-01T05:55:44;5.70;;;2.05;;
3953;SDS011;1991;48.682;9.030;2022-08-01T05:58:10;2.33;;;1.80;;
3953;SDS011;1991;48.682;9.030;2022-08-01T06:00:36;2.28;;;1.90;;
3953;SDS011;1991;48.682;9.030;2022-08-01T06:03:01;2.45;;;1.95;;
3953;SDS011;1991;48.682;9.030;2022-08-01T06:05:27;4.47;;;2.10;;
3953;SDS011;1991;48.682;9.030;2022-08-01T06:07:53;3.60;;;2.13;;
3953;SDS011;1991;48.682;9.030;2022-08-01T06:10:18;3.42;;;1.73;;
3953;SDS011;1991;48.682;9.030;2022-08-01T06:12:44;2.00;;;1.40;;
3953;SDS011;1991;48.682;9.030;2022-08-01T06:15:10;2.05;;;1.65;;
3953;SDS011;1991;48.682;9.030;2022-08-01T06:17:36;2.00;;;1.80;;
3953;SDS011;1991;48.682;9.030;2022-08-01T06:20:02;2.33;;;1.73;;
3953;SDS011;1991;48.682;9.030;2022-08-01T06:22:29;2.05;;;1.80;;
3953;SDS011;1991;48.682;9.030;2022-08-01T06:24:54;2.08;;;1.60;;
3953;SDS011;1991;48.682;9.030;2022-08-01T06:27:20;1.88;;;1.70;;
3953;SDS011;1991;48.682;9.030;2022-08-01T06:29:46;2.63;;;1.67;;
3953;SDS011;1991;48.682;9.030;2022-08-01T06:32:11;1.65;;;1.55;;
3953;SDS011;1991;48.682;9.030;2022-08-01T06:34:37;2.10;;;1.60;;
3953;SDS011;1991;48.682;9.030;2022-08-01T06:37:03;2.15;;;1.52;;
3953;SDS011;1991;48.682;9.030;2022-08-01T06:39:28;3.28;;;1.50;;
3953;SDS011;1991;48.682;9.030;2022-08-01T06:41:54;1.67;;;1.42;;
3953;SDS011;1991;48.682;9.030;2022-08-01T06:44:19;3.03;;;1.50;;
3953;SDS011;1991;48.682;9.030;2022-08-01T06:46:45;3.25;;;1.45;;
3953;SDS011;1991;48.682;9.030;2022-08-01T06:49:10;2.42;;;1.73;;
3953;SDS011;1991;48.682;9.030;2022-08-01T06:51:36;3.08;;;1.33;;
3953;SDS011;1991;48.682;9.030;2022-08-01T06:54:02;1.50;;;1.40;;
3953;SDS011;1991;48.682;9.030;2022-08-01T06:56:27;2.40;;;1.10;;
3953;SDS011;1991;48.682;9.030;2022-08-01T06:58:53;1.63;;;1.30;;
3953;SDS011;1991;48.682;9.030;2022-08-01T07:01:25;1.75;;;1.35;;
3953;SDS011;1991;48.682;9.030;2022-08-01T07:03:51;12.52;;;2.20;;
3953;SDS011;1991;48.682;9.030;2022-08-01T07:06:17;1.58;;;1.13;;
3953;SDS011;1991;48.682;9.030;2022-08-01T07:08:43;1.10;;;1.00;;
3953;SDS011;1991;48.682;9.030;2022-08-01T07:11:08;1.58;;;1.05;;
3953;SDS011;1991;48.682;9.030;2022-08-01T07:13:34;1.20;;;1.10;;
3953;SDS011;1991;48.682;9.030;2022-08-01T07:16:01;2.88;;;1.25;;
3953;SDS011;1991;48.682;9.030;2022-08-01T07:18:26;3.40;;;1.20;;
3953;SDS011;1991;48.682;9.030;2022-08-01T07:20:52;3.83;;;1.35;;
3953;SDS011;1991;48.682;9.030;2022-08-01T07:23:17;3.70;;;1.33;;
3953;SDS011;1991;48.682;9.030;2022-08-01T07:25:43;4.72;;;1.42;;
3953;SDS011;1991;48.682;9.030;2022-08-01T07:28:09;4.10;;;1.00;;
3953;SDS011;1991;48.682;9.030;2022-08-01T07:30:34;1.15;;;1.05;;
3953;SDS011;1991;48.682;9.030;2022-08-01T07:33:00;1.17;;;1.00;;
3953;SDS011;1991;48.682;9.030;2022-08-01T07:35:26;1.20;;;1.05;;
3953;SDS011;1991;48.682;9.030;2022-08-01T07:37:52;1.85;;;1.38;;
3953;SDS011;1991;48.682;9.030;2022-08-01T07:40:18;1.45;;;1.20;;
3953;SDS011;1991;48.682;9.030;2022-08-01T07:42:45;5.40;;;1.75;;
3953;SDS011;1991;48.682;9.030;2022-08-01T07:45:11;1.63;;;1.40;;
3953;SDS011;1991;48.682;9.030;2022-08-01T07:47:38;2.80;;;1.58;;
3953;SDS011;1991;48.682;9.030;2022-08-01T07:50:04;1.90;;;1.42;;
3953;SDS011;1991;48.682;9.030;2022-08-01T07:52:30;5.55;;;1.70;;
3953;SDS011;1991;48.682;9.030;2022-08-01T07:54:56;1.70;;;1.60;;
3953;SDS011;1991;48.682;9.030;2022-08-01T07:57:23;1.73;;;1.52;;
3953;SDS011;1991;48.682;9.030;2022-08-01T07:59:50;4.45;;;1.60;;
3953;SDS011;1991;48.682;9.030;2022-08-01T08:02:16;4.05;;;2.03;;
3953;SDS011;1991;48.682;9.030;2022-08-01T08:04:41;1.80;;;1.70;;
3953;SDS011;1991;48.682;9.030;2022-08-01T08:07:07;3.50;;;1.73;;
3953;SDS011;1991;48.682;9.030;2022-08-01T08:09:33;1.90;;;1.80;;
3953;SDS011;1991;48.682;9.030;2022-08-01T08:11:58;1.90;;;1.80;;
3953;SDS011;1991;48.682;9.030;2022-08-01T08:14:24;6.85;;;2.40;;
3953;SDS011;1991;48.682;9.030;2022-08-01T08:16:50;4.43;;;2.20;;
3953;SDS011;1991;48.682;9.030;2022-08-01T08:19:15;2.08;;;1.70;;
3953;SDS011;1991;48.682;9.030;2022-08-01T08:21:41;2.15;;;1.85;;
3953;SDS011;1991;48.682;9.030;2022-08-01T08:24:07;1.85;;;1.75;;
3953;SDS011;1991;48.682;9.030;2022-08-01T08:26:50;3.45;;;2.08;;
3953;SDS011;1991;48.682;9.030;2022-08-01T08:29:18;2.63;;;2.03;;
3953;SDS011;1991;48.682;9.030;2022-08-01T08:31:45;2.75;;;2.03;;
3953;SDS011;1991;48.682;9.030;2022-08-01T08:34:11;2.90;;;2.40;;
3953;SDS011;1991;48.682;9.030;2022-08-01T08:36:37;3.17;;;2.08;;
3953;SDS011;1991;48.682;9.030;2022-08-01T08:39:03;2.63;;;2.10;;
3953;SDS011;1991;48.682;9.030;2022-08-01T08:41:29;2.25;;;2.13;;
3953;SDS011;1991;48.682;9.030;2022-08-01T08:43:55;2.67;;;2.47;;
3953;SDS011;1991;48.682;9.030;2022-08-01T08:46:24;3.03;;;2.30;;
3953;SDS011;1991;48.682;9.030;2022-08-01T08:48:51;2.65;;;2.40;;
3953;SDS011;1991;48.682;9.030;2022-08-01T08:51:17;3.30;;;2.80;;
3953;SDS011;1991;48.682;9.030;2022-08-01T08:53:44;3.72;;;2.50;;
3953;SDS011;1991;48.682;9.030;2022-08-01T08:56:12;2.63;;;2.42;;
3953;SDS011;1991;48.682;9.030;2022-08-01T08:58:39;3.08;;;2.60;;
3953;SDS011;1991;48.682;9.030;2022-08-01T09:01:06;2.72;;;2.53;;
3953;SDS011;1991;48.682;9.030;2022-08-01T09:03:33;2.60;;;2.40;;
3953;SDS011;1991;48.682;9.030;2022-08-01T09:05:59;3.28;;;2.20;;
3953;SDS011;1991;48.682;9.030;2022-08-01T09:08:25;3.70;;;2.30;;
3953;SDS011;1991;48.682;9.030;2022-08-01T09:10:51;3.58;;;2.28;;
3953;SDS011;1991;48.682;9.030;2022-08-01T09:13:16;2.70;;;2.50;;
3953;SDS011;1991;48.682;9.030;2022-08-01T09:15:46;3.83;;;2.70;;
3953;SDS011;1991;48.682;9.030;2022-08-01T09:18:31;2.75;;;2.55;;
3953;SDS011;1991;48.682;9.030;2022-08-01T09:23:34;3.47;;;2.70;;
3953;SDS011;1991;48.682;9.030;2022-08-01T09:26:04;4.18;;;2.83;;
3953;SDS011;1991;48.682;9.030;2022-08-01T09:28:31;2.78;;;2.58;;
3953;SDS011;1991;48.682;9.030;2022-08-01T09:30:57;4.65;;;2.60;;
3953;SDS011;1991;48.682;9.030;2022-08-01T09:33:23;4.40;;;2.83;;
3953;SDS011;1991;48.682;9.030;2022-08-01T09:35:53;3.40;;;3.10;;
3953;SDS011;1991;48.682;9.030;2022-08-01T09:38:20;5.53;;;3.00;;
3953;SDS011;1991;48.682;9.030;2022-08-01T09:43:22;3.00;;;2.80;;
3953;SDS011;1991;48.682;9.030;2022-08-01T09:45:49;3.33;;;3.00;;
3953;SDS011;1991;48.682;9.030;2022-08-01T09:48:15;4.63;;;2.80;;
3953;SDS011;1991;48.682;9.030;2022-08-01T09:50:41;3.88;;;3.05;;
3953;SDS011;1991;48.682;9.030;2022-08-01T09:53:08;3.33;;;3.03;;
3953;SDS011;1991;48.682;9.030;2022-08-01T09:55:35;4.68;;;3.30;;
3953;SDS011;1991;48.682;9.030;2022-08-01T09:58:01;3.92;;;3.63;;
3953;SDS011;1991;48.682;9.030;2022-08-01T10:00:29;4.93;;;4.00;;
3953;SDS011;1991;48.682;9.030;2022-08-01T10:02:55;6.03;;;3.83;;
3953;SDS011;1991;48.682;9.030;2022-08-01T10:05:29;5.43;;;3.80;;
3953;SDS011;1991;48.682;9.030;2022-08-01T10:08:03;4.45;;;3.75;;
3953;SDS011;1991;48.682;9.030;2022-08-01T10:10:30;6.85;;;3.53;;
3953;SDS011;1991;48.682;9.030;2022-08-01T10:12:57;5.88;;;3.45;;
3953;SDS011;1991;48.682;9.030;2022-08-01T10:15:24;3.10;;;2.90;;
3953;SDS011;1991;48.682;9.030;2022-08-01T10:17:55;3.25;;;2.85;;
3953;SDS011;1991;48.682;9.030;2022-08-01T10:20:24;3.30;;;2.97;;
3953;SDS011;1991;48.682;9.030;2022-08-01T10:22:52;2.60;;;2.40;;
3953;SDS011;1991;48.682;9.030;2022-08-01T10:25:19;3.20;;;2.80;;
3953;SDS011;1991;48.682;9.030;2022-08-01T10:27:48;3.05;;;2.75;;
3953;SDS011;1991;48.682;9.030;2022-08-01T10:30:14;8.40;;;3.28;;
3953;SDS011;1991;48.682;9.030;2022-08-01T10:32:40;3.05;;;2.85;;
3953;SDS011;1991;48.682;9.030;2022-08-01T10:35:09;2.75;;;2.50;;
3953;SDS011;1991;48.682;9.030;2022-08-01T10:37:41;3.10;;;2.72;;
3953;SDS011;1991;48.682;9.030;2022-08-01T10:40:08;2.67;;;2.42;;
3953;SDS011;1991;48.682;9.030;2022-08-01T10:42:37;3.17;;;2.65;;
3953;SDS011;1991;48.682;9.030;2022-08-01T10:45:09;4.68;;;2.88;;
3953;SDS011;1991;48.682;9.030;2022-08-01T10:47:53;4.25;;;2.47;;
3953;SDS011;1991;48.682;9.030;2022-08-01T10:53:09;3.67;;;2.33;;
3953;SDS011;1991;48.682;9.030;2022-08-01T10:56:03;3.65;;;2.63;;
3953;SDS011;1991;48.682;9.030;2022-08-01T10:58:31;2.88;;;2.67;;
3953;SDS011;1991;48.682;9.030;2022-08-01T11:03:39;2.42;;;2.15;;
3953;SDS011;1991;48.682;9.030;2022-08-01T11:06:04;2.47;;;2.28;;
3953;SDS011;1991;48.682;9.030;2022-08-01T11:08:30;3.80;;;2.35;;
3953;SDS011;1991;48.682;9.030;2022-08-01T11:11:02;4.38;;;2.00;;
3953;SDS011;1991;48.682;9.030;2022-08-01T11:16:38;3.22;;;2.17;;
3953;SDS011;1991;48.682;9.030;2022-08-01T11:19:07;3.13;;;2.20;;
3953;SDS011;1991;48.682;9.030;2022-08-01T11:29:41;2.30;;;2.10;;
3953;SDS011;1991;48.682;9.030;2022-08-01T11:32:23;3.65;;;2.25;;
3953;SDS011;1991;48.682;9.030;2022-08-01T11:34:53;3.25;;;1.70;;
3953;SDS011;1991;48.682;9.030;2022-08-01T11:37:22;2.33;;;2.08;;
3953;SDS011;1991;48.682;9.030;2022-08-01T11:42:40;3.00;;;1.90;;
3953;SDS011;1991;48.682;9.030;2022-08-01T11:45:06;2.40;;;2.20;;
3953;SDS011;1991;48.682;9.030;2022-08-01T11:47:47;3.88;;;2.10;;
3953;SDS011;1991;48.682;9.030;2022-08-01T11:50:33;2.13;;;1.92;;
3953;SDS011;1991;48.682;9.030;2022-08-01T11:53:01;2.17;;;1.98;;
3953;SDS011;1991;48.682;9.030;2022-08-01T11:55:29;2.15;;;1.95;;
3953;SDS011;1991;48.682;9.030;2022-08-01T11:58:02;4.75;;;2.25;;
3953;SDS011;1991;48.682;9.030;2022-08-01T12:00:32;3.25;;;1.92;;
3953;SDS011;1991;48.682;9.030;2022-08-01T12:03:02;2.47;;;2.28;;
3953;SDS011;1991;48.682;9.030;2022-08-01T12:05:32;4.82;;;2.38;;
3953;SDS011;1991;48.682;9.030;2022-08-01T12:07:59;3.33;;;2.20;;
3953;SDS011;1991;48.682;9.030;2022-08-01T12:10:26;2.17;;;1.98;;
3953;SDS011;1991;48.682;9.030;2022-08-01T12:12:59;2.00;;;1.80;;
3953;SDS011;1991;48.682;9.030;2022-08-01T12:15:29;4.68;;;2.13;;
3953;SDS011;1991;48.682;9.030;2022-08-01T12:17:59;2.90;;;1.73;;
3953;SDS011;1991;48.682;9.030;2022-08-01T12:20:30;3.40;;;2.10;;
3953;SDS011;1991;48.682;9.030;2022-08-01T12:23:02;2.88;;;1.80;;
3953;SDS011;1991;48.682;9.030;2022-08-01T12:25:30;3.40;;;2.10;;
3953;SDS011;1991;48.682;9.030;2022-08-01T12:28:06;2.22;;;2.03;;
3953;SDS011;1991;48.682;9.030;2022-08-01T12:30:33;2.53;;;2.13;;
3953;SDS011;1991;48.682;9.030;2022-08-01T12:33:01;3.70;;;2.35;;
3953;SDS011;1991;48.682;9.030;2022-08-01T12:35:32;2.45;;;2.15;;
3953;SDS011;1991;48.682;9.030;2022-08-01T12:38:13;2.83;;;1.90;;
3953;SDS011;1991;48.682;9.030;2022-08-01T12:40:42;2.15;;;1.80;;
3953;SDS011;1991;48.682;9.030;2022-08-01T12:43:10;1.75;;;1.65;;
3953;SDS011;1991;48.682;9.030;2022-08-01T12:45:42;2.20;;;2.00;;
3953;SDS011;1991;48.682;9.030;2022-08-01T12:48:10;2.40;;;1.77;;
3953;SDS011;1991;48.682;9.030;2022-08-01T12:50:37;2.10;;;1.70;;
3953;SDS011;1991;48.682;9.030;2022-08-01T12:53:04;2.25;;;1.70;;
3953;SDS011;1991;48.682;9.030;2022-08-01T12:55:30;2.67;;;1.80;;
3953;SDS011;1991;48.682;9.030;2022-08-01T12:58:07;4.72;;;1.80;;
3953;SDS011;1991;48.682;9.030;2022-08-01T13:00:34;5.72;;;1.85;;
3953;SDS011;1991;48.682;9.030;2022-08-01T13:03:11;5.80;;;1.95;;
3953;SDS011;1991;48.682;9.030;2022-08-01T13:08:14;6.72;;;1.90;;
3953;SDS011;1991;48.682;9.030;2022-08-01T13:10:42;8.02;;;1.67;;
3953;SDS011;1991;48.682;9.030;2022-08-01T13:13:08;2.88;;;1.90;;
3953;SDS011;1991;48.682;9.030;2022-08-01T13:15:36;5.25;;;1.77;;
3953;SDS011;1991;48.682;9.030;2022-08-01T13:24:07;2.45;;;1.90;;
3953;SDS011;1991;48.682;9.030;2022-08-01T13:26:48;3.53;;;1.83;;
3953;SDS011;1991;48.682;9.030;2022-08-01T13:31:42;2.28;;;1.67;;
3953;SDS011;1991;48.682;9.030;2022-08-01T13:34:08;3.10;;;1.85;;
3953;SDS011;1991;48.682;9.030;2022-08-01T13:36:35;7.30;;;2.40;;
3953;SDS011;1991;48.682;9.030;2022-08-01T13:39:01;5.13;;;2.10;;
3953;SDS011;1991;48.682;9.030;2022-08-01T13:41:46;2.47;;;1.80;;
3953;SDS011;1991;48.682;9.030;2022-08-01T13:44:12;2.60;;;1.70;;
3953;SDS011;1991;48.682;9.030;2022-08-01T13:46:38;2.13;;;1.70;;
3953;SDS011;1991;48.682;9.030;2022-08-01T13:49:05;5.38;;;2.05;;
3953;SDS011;1991;48.682;9.030;2022-08-01T13:51:32;4.90;;;2.10;;
3953;SDS011;1991;48.682;9.030;2022-08-01T13:53:58;8.30;;;2.28;;
3953;SDS011;1991;48.682;9.030;2022-08-01T13:56:24;7.47;;;2.10;;
3953;SDS011;1991;48.682;9.030;2022-08-01T13:58:51;4.30;;;2.08;;
3953;SDS011;1991;48.682;9.030;2022-08-01T14:01:17;4.18;;;2.15;;
3953;SDS011;1991;48.682;9.030;2022-08-01T14:03:43;3.67;;;2.10;;
3953;SDS011;1991;48.682;9.030;2022-08-01T14:06:08;5.50;;;2.20;;
3953;SDS011;1991;48.682;9.030;2022-08-01T14:08:34;5.63;;;2.63;;
3953;SDS011;1991;48.682;9.030;2022-08-01T14:10:59;5.50;;;2.10;;
3953;SDS011;1991;48.682;9.030;2022-08-01T14:13:25;3.53;;;2.00;;
3953;SDS011;1991;48.682;9.030;2022-08-01T14:15:53;5.32;;;2.30;;
3953;SDS011;1991;48.682;9.030;2022-08-01T14:18:18;2.30;;;1.90;;
3953;SDS011;1991;48.682;9.030;2022-08-01T14:20:44;3.63;;;1.85;;
3953;SDS011;1991;48.682;9.030;2022-08-01T14:23:10;2.03;;;1.92;;
3953;SDS011;1991;48.682;9.030;2022-08-01T14:25:36;2.50;;;2.30;;
3953;SDS011;1991;48.682;9.030;2022-08-01T14:28:02;1.90;;;1.80;;
3953;SDS011;1991;48.682;9.030;2022-08-01T14:30:28;2.38;;;2.03;;
3953;SDS011;1991;48.682;9.030;2022-08-01T14:32:54;3.25;;;2.28;;
3953;SDS011;1991;48.682;9.030;2022-08-01T14:35:20;2.08;;;1.88;;
3953;SDS011;1991;48.682;9.030;2022-08-01T14:37:46;2.20;;;2.00;;
3953;SDS011;1991;48.682;9.030;2022-08-01T14:40:11;1.90;;;1.80;;
3953;SDS011;1991;48.682;9.030;2022-08-01T14:42:38;1.98;;;1.67;;
3953;SDS011;1991;48.682;9.030;2022-08-01T14:45:04;4.10;;;2.10;;
3953;SDS011;1991;48.682;9.030;2022-08-01T14:47:34;6.40;;;1.90;;
3953;SDS011;1991;48.682;9.030;2022-08-01T14:50:04;5.10;;;1.80;;
3953;SDS011;1991;48.682;9.030;2022-08-01T14:52:32;4.90;;;1.95;;
3953;SDS011;1991;48.682;9.030;2022-08-01T14:54:58;5.00;;;1.80;;
3953;SDS011;1991;48.682;9.030;2022-08-01T14:57:24;2.20;;;1.77;;
3953;SDS011;1991;48.682;9.030;2022-08-01T14:59:50;2.10;;;1.75;;
3953;SDS011;1991;48.682;9.030;2022-08-01T15:02:15;4.60;;;2.08;;
3953;SDS011;1991;48.682;9.030;2022-08-01T15:04:44;2.80;;;1.92;;
3953;SDS011;1991;48.682;9.030;2022-08-01T15:07:11;3.13;;;1.92;;
3953;SDS011;1991;48.682;9.030;2022-08-01T15:09:36;5.82;;;2.03;;
3953;SDS011;1991;48.682;9.030;2022-08-01T15:12:02;1.98;;;1.70;;
3953;SDS011;1991;48.682;9.030;2022-08-01T15:14:28;2.13;;;1.77;;
3953;SDS011;1991;48.682;9.030;2022-08-01T15:17:12;3.03;;;1.70;;
3953;SDS011;1991;48.682;9.030;2022-08-01T15:19:49;2.28;;;1.90;;
3953;SDS011;1991;48.682;9.030;2022-08-01T15:22:17;10.40;;;2.47;;
3953;SDS011;1991;48.682;9.030;2022-08-01T15:24:43;6.07;;;2.30;;
3953;SDS011;1991;48.682;9.030;2022-08-01T15:27:09;2.10;;;1.90;;
3953;SDS011;1991;48.682;9.030;2022-08-01T15:29:35;3.38;;;1.60;;
3953;SDS011;1991;48.682;9.030;2022-08-01T15:32:02;1.98;;;1.70;;
3953;SDS011;1991;48.682;9.030;2022-08-01T15:34:29;3.22;;;1.70;;
3953;SDS011;1991;48.682;9.030;2022-08-01T15:36:55;2.97;;;1.52;;
3953;SDS011;1991;48.682;9.030;2022-08-01T15:39:21;2.20;;;1.80;;
3953;SDS011;1991;48.682;9.030;2022-08-01T15:41:47;2.65;;;2.00;;
3953;SDS011;1991;48.682;9.030;2022-08-01T15:44:13;2.05;;;1.63;;
3953;SDS011;1991;48.682;9.030;2022-08-01T15:46:39;2.47;;;1.65;;
3953;SDS011;1991;48.682;9.030;2022-08-01T15:49:05;1.77;;;1.67;;
3953;SDS011;1991;48.682;9.030;2022-08-01T15:51:31;1.80;;;1.40;;
3953;SDS011;1991;48.682;9.030;2022-08-01T15:53:57;2.95;;;1.40;;
3953;SDS011;1991;48.682;9.030;2022-08-01T15:56:23;1.95;;;1.75;;
3953;SDS011;1991;48.682;9.030;2022-08-01T15:58:49;4.20;;;1.55;;
3953;SDS011;1991;48.682;9.030;2022-08-01T16:01:15;2.03;;;1.50;;
3953;SDS011;1991;48.682;9.030;2022-08-01T16:03:41;2.05;;;1.60;;
3953;SDS011;1991;48.682;9.030;2022-08-01T16:06:06;1.83;;;1.60;;
3953;SDS011;1991;48.682;9.030;2022-08-01T16:08:32;3.38;;;1.83;;